sensor_id;sensor_type;location;lat;lon;timestamp;pressure;altitude;pressure_sealevel;temperature;humidity
64614;BME280;51025;37.772;-122.432;2023-05-20T00:02:27;101214.43;;;21.02;29.84
64614;BME280;51025;37.772;-122.432;2023-05-20T00:04:57;101215.16;;;21.22;29.69
64614;BME280;51025;37.772;-122.432;2023-05-20T00:07:26;101213.08;;;21.52;29.44
64614;BME280;51025;37.772;-122.432;2023-05-20T00:09:55;101212.81;;;20.97;29.62
64614;BME280;51025;37.772;-122.432;2023-05-20T00:12:23;101210.70;;;21.11;29.82
64614;BME280;51025;37.772;-122.432;2023-05-20T00:14:51;101215.47;;;20.75;29.83
64614;BME280;51025;37.772;-122.432;2023-05-20T00:17:20;101218.11;;;20.91;29.70
64614;BME280;51025;37.772;-122.432;2023-05-20T00:19:48;101218.00;;;20.31;29.91
64614;BME280;51025;37.772;-122.432;2023-05-20T00:22:17;101219.93;;;20.91;30.01
64614;BME280;51025;37.772;-122.432;2023-05-20T00:24:46;101219.49;;;21.24;29.70
64614;BME280;51025;37.772;-122.432;2023-05-20T00:27:15;101220.07;;;21.05;29.81
64614;BME280;51025;37.772;-122.432;2023-05-20T00:29:43;101216.10;;;20.63;29.88
64614;BME280;51025;37.772;-122.432;2023-05-20T00:32:11;101213.12;;;20.61;29.92
64614;BME280;51025;37.772;-122.432;2023-05-20T00:34:38;101214.64;;;20.88;29.70
64614;BME280;51025;37.772;-122.432;2023-05-20T00:37:06;101214.19;;;21.59;29.30
64614;BME280;51025;37.772;-122.432;2023-05-20T00:39:35;101207.16;;;21.59;29.28
64614;BME280;51025;37.772;-122.432;2023-05-20T00:42:03;101208.87;;;21.35;29.56
64614;BME280;51025;37.772;-122.432;2023-05-20T00:44:31;101205.29;;;21.22;29.68
64614;BME280;51025;37.772;-122.432;2023-05-20T00:46:59;101203.51;;;21.01;29.90
64614;BME280;51025;37.772;-122.432;2023-05-20T00:49:29;101201.20;;;21.56;29.43
64614;BME280;51025;37.772;-122.432;2023-05-20T00:51:57;101202.38;;;20.48;29.81
64614;BME280;51025;37.772;-122.432;2023-05-20T00:54:26;101210.06;;;20.88;29.79
64614;BME280;51025;37.772;-122.432;2023-05-20T00:56:54;101205.63;;;20.72;29.61
64614;BME280;51025;37.772;-122.432;2023-05-20T00:59:24;101211.12;;;21.22;29.76
64614;BME280;51025;37.772;-122.432;2023-05-20T01:01:52;101206.76;;;21.56;29.47
64614;BME280;51025;37.772;-122.432;2023-05-20T01:04:22;101203.32;;;21.50;29.48
64614;BME280;51025;37.772;-122.432;2023-05-20T01:06:51;101206.09;;;20.99;29.58
64614;BME280;51025;37.772;-122.432;2023-05-20T01:09:19;101206.30;;;20.99;29.53
64614;BME280;51025;37.772;-122.432;2023-05-20T01:11:51;101203.35;;;21.18;29.36
64614;BME280;51025;37.772;-122.432;2023-05-20T01:14:26;101214.07;;;21.50;29.35
64614;BME280;51025;37.772;-122.432;2023-05-20T01:16:58;101209.59;;;21.36;29.47
64614;BME280;51025;37.772;-122.432;2023-05-20T01:19:34;101209.13;;;21.47;29.38
64614;BME280;51025;37.772;-122.432;2023-05-20T01:22:05;101218.37;;;21.21;29.58
64614;BME280;51025;37.772;-122.432;2023-05-20T01:24:34;101213.89;;;20.75;29.36
64614;BME280;51025;37.772;-122.432;2023-05-20T01:27:02;101208.56;;;20.89;29.53
64614;BME280;51025;37.772;-122.432;2023-05-20T01:29:30;101206.89;;;21.63;29.55
64614;BME280;51025;37.772;-122.432;2023-05-20T01:32:02;101204.97;;;20.88;29.51
64614;BME280;51025;37.772;-122.432;2023-05-20T01:34:33;101209.89;;;21.23;29.45
64614;BME280;51025;37.772;-122.432;2023-05-20T01:37:03;101196.68;;;21.44;29.29
64614;BME280;51025;37.772;-122.432;2023-05-20T01:39:35;101205.77;;;21.22;29.41
64614;BME280;51025;37.772;-122.432;2023-05-20T01:42:08;101209.28;;;21.40;29.26
64614;BME280;51025;37.772;-122.432;2023-05-20T01:44:38;101210.15;;;21.25;29.42
64614;BME280;51025;37.772;-122.432;2023-05-20T01:47:10;101217.90;;;20.62;29.62
64614;BME280;51025;37.772;-122.432;2023-05-20T01:49:42;101217.60;;;21.14;29.46
64614;BME280;51025;37.772;-122.432;2023-05-20T01:52:13;101211.81;;;21.07;29.50
64614;BME280;51025;37.772;-122.432;2023-05-20T01:54:43;101213.54;;;20.57;29.60
64614;BME280;51025;37.772;-122.432;2023-05-20T01:57:13;101216.83;;;21.07;29.49
64614;BME280;51025;37.772;-122.432;2023-05-20T01:59:42;101219.16;;;21.43;29.14
64614;BME280;51025;37.772;-122.432;2023-05-20T02:02:13;101210.30;;;20.88;29.24
64614;BME280;51025;37.772;-122.432;2023-05-20T02:04:44;101213.78;;;20.91;29.57
64614;BME280;51025;37.772;-122.432;2023-05-20T02:07:12;101208.81;;;20.97;29.52
64614;BME280;51025;37.772;-122.432;2023-05-20T02:09:40;101207.87;;;20.95;29.51
64614;BME280;51025;37.772;-122.432;2023-05-20T02:12:09;101205.81;;;20.87;29.56
64614;BME280;51025;37.772;-122.432;2023-05-20T02:14:38;101210.32;;;21.30;29.17
64614;BME280;51025;37.772;-122.432;2023-05-20T02:17:06;101206.84;;;21.10;29.29
64614;BME280;51025;37.772;-122.432;2023-05-20T02:19:34;101207.87;;;21.00;29.40
64614;BME280;51025;37.772;-122.432;2023-05-20T02:22:02;101201.31;;;21.30;29.12
64614;BME280;51025;37.772;-122.432;2023-05-20T02:24:30;101201.62;;;20.90;29.39
64614;BME280;51025;37.772;-122.432;2023-05-20T02:26:59;101206.55;;;20.41;29.52
64614;BME280;51025;37.772;-122.432;2023-05-20T02:29:28;101213.82;;;20.98;29.33
64614;BME280;51025;37.772;-122.432;2023-05-20T02:31:57;101217.54;;;21.10;28.98
64614;BME280;51025;37.772;-122.432;2023-05-20T02:34:26;101216.94;;;21.28;29.16
64614;BME280;51025;37.772;-122.432;2023-05-20T02:36:54;101210.62;;;21.46;29.20
64614;BME280;51025;37.772;-122.432;2023-05-20T02:39:22;101212.91;;;20.66;29.70
64614;BME280;51025;37.772;-122.432;2023-05-20T02:41:50;101217.91;;;21.32;29.51
64614;BME280;51025;37.772;-122.432;2023-05-20T02:44:18;101220.34;;;21.22;29.61
64614;BME280;51025;37.772;-122.432;2023-05-20T02:46:48;101225.58;;;20.91;29.87
64614;BME280;51025;37.772;-122.432;2023-05-20T02:49:17;101224.14;;;20.44;29.68
64614;BME280;51025;37.772;-122.432;2023-05-20T02:51:46;101224.64;;;21.15;29.62
64614;BME280;51025;37.772;-122.432;2023-05-20T02:54:16;101227.14;;;20.93;29.62
64614;BME280;51025;37.772;-122.432;2023-05-20T02:56:44;101233.46;;;21.01;29.76
64614;BME280;51025;37.772;-122.432;2023-05-20T02:59:13;101235.53;;;20.88;29.89
64614;BME280;51025;37.772;-122.432;2023-05-20T03:01:41;101235.01;;;21.11;29.64
64614;BME280;51025;37.772;-122.432;2023-05-20T03:04:09;101229.58;;;20.95;29.80
64614;BME280;51025;37.772;-122.432;2023-05-20T03:06:37;101236.38;;;20.90;29.87
64614;BME280;51025;37.772;-122.432;2023-05-20T03:09:05;101242.05;;;21.14;29.68
64614;BME280;51025;37.772;-122.432;2023-05-20T03:11:33;101240.11;;;21.02;29.83
64614;BME280;51025;37.772;-122.432;2023-05-20T03:14:01;101237.62;;;21.10;29.72
64614;BME280;51025;37.772;-122.432;2023-05-20T03:16:29;101236.34;;;20.87;29.54
64614;BME280;51025;37.772;-122.432;2023-05-20T03:18:57;101237.68;;;21.11;29.57
64614;BME280;51025;37.772;-122.432;2023-05-20T03:21:25;101236.58;;;21.02;29.66
64614;BME280;51025;37.772;-122.432;2023-05-20T03:23:53;101239.66;;;20.79;29.82
64614;BME280;51025;37.772;-122.432;2023-05-20T03:26:21;101234.79;;;20.54;29.72
64614;BME280;51025;37.772;-122.432;2023-05-20T03:28:49;101230.00;;;20.95;29.73
64614;BME280;51025;37.772;-122.432;2023-05-20T03:31:17;101235.10;;;20.97;29.67
64614;BME280;51025;37.772;-122.432;2023-05-20T03:33:46;101235.72;;;20.91;29.65
64614;BME280;51025;37.772;-122.432;2023-05-20T03:36:14;101237.28;;;20.85;29.72
64614;BME280;51025;37.772;-122.432;2023-05-20T03:38:43;101244.17;;;20.99;29.60
64614;BME280;51025;37.772;-122.432;2023-05-20T03:41:11;101235.03;;;20.38;29.77
64614;BME280;51025;37.772;-122.432;2023-05-20T03:43:39;101236.29;;;20.91;29.71
64614;BME280;51025;37.772;-122.432;2023-05-20T03:46:07;101238.32;;;20.58;29.92
64614;BME280;51025;37.772;-122.432;2023-05-20T03:48:35;101242.86;;;20.85;30.07
64614;BME280;51025;37.772;-122.432;2023-05-20T03:51:04;101238.38;;;20.95;29.57
64614;BME280;51025;37.772;-122.432;2023-05-20T03:53:33;101240.48;;;20.56;29.89
64614;BME280;51025;37.772;-122.432;2023-05-20T03:56:01;101239.04;;;20.86;29.65
64614;BME280;51025;37.772;-122.432;2023-05-20T03:58:30;101239.63;;;20.08;29.64
64614;BME280;51025;37.772;-122.432;2023-05-20T04:00:58;101237.02;;;20.88;29.53
64614;BME280;51025;37.772;-122.432;2023-05-20T04:03:25;101237.01;;;20.50;29.59
64614;BME280;51025;37.772;-122.432;2023-05-20T04:05:54;101236.19;;;20.79;29.27
64614;BME280;51025;37.772;-122.432;2023-05-20T04:08:24;101244.37;;;21.32;29.34
64614;BME280;51025;37.772;-122.432;2023-05-20T04:10:55;101243.11;;;21.01;29.74
64614;BME280;51025;37.772;-122.432;2023-05-20T04:13:24;101247.60;;;20.69;30.17
64614;BME280;51025;37.772;-122.432;2023-05-20T04:15:53;101245.56;;;20.68;30.23
64614;BME280;51025;37.772;-122.432;2023-05-20T04:18:21;101254.68;;;20.59;30.37
64614;BME280;51025;37.772;-122.432;2023-05-20T04:20:52;101254.61;;;20.63;30.30
64614;BME280;51025;37.772;-122.432;2023-05-20T04:23:21;101254.88;;;20.65;30.49
64614;BME280;51025;37.772;-122.432;2023-05-20T04:25:49;101256.45;;;20.83;30.86
64614;BME280;51025;37.772;-122.432;2023-05-20T04:28:17;101264.14;;;20.63;30.71
64614;BME280;51025;37.772;-122.432;2023-05-20T04:30:45;101267.73;;;20.60;30.74
64614;BME280;51025;37.772;-122.432;2023-05-20T04:33:13;101269.65;;;20.74;30.73
64614;BME280;51025;37.772;-122.432;2023-05-20T04:35:42;101263.22;;;20.75;30.76
64614;BME280;51025;37.772;-122.432;2023-05-20T04:38:10;101266.25;;;21.17;30.62
64614;BME280;51025;37.772;-122.432;2023-05-20T04:40:39;101268.74;;;20.77;30.59
64614;BME280;51025;37.772;-122.432;2023-05-20T04:43:07;101269.45;;;20.82;30.60
64614;BME280;51025;37.772;-122.432;2023-05-20T04:45:35;101270.91;;;21.00;30.47
64614;BME280;51025;37.772;-122.432;2023-05-20T04:48:03;101270.73;;;20.36;31.12
64614;BME280;51025;37.772;-122.432;2023-05-20T04:50:31;101272.71;;;20.67;31.04
64614;BME280;51025;37.772;-122.432;2023-05-20T04:53:00;101269.62;;;20.77;31.13
64614;BME280;51025;37.772;-122.432;2023-05-20T04:55:28;101269.75;;;20.89;31.16
64614;BME280;51025;37.772;-122.432;2023-05-20T04:57:56;101276.72;;;20.99;31.36
64614;BME280;51025;37.772;-122.432;2023-05-20T05:00:25;101282.72;;;20.47;31.65
64614;BME280;51025;37.772;-122.432;2023-05-20T05:02:53;101290.21;;;20.55;31.56
64614;BME280;51025;37.772;-122.432;2023-05-20T05:05:21;101299.98;;;20.23;31.50
64614;BME280;51025;37.772;-122.432;2023-05-20T05:07:49;101299.80;;;20.07;31.50
64614;BME280;51025;37.772;-122.432;2023-05-20T05:10:17;101302.81;;;20.28;31.77
64614;BME280;51025;37.772;-122.432;2023-05-20T05:12:45;101296.89;;;20.51;31.39
64614;BME280;51025;37.772;-122.432;2023-05-20T05:15:14;101298.25;;;20.73;31.34
64614;BME280;51025;37.772;-122.432;2023-05-20T05:17:42;101294.33;;;20.64;31.25
64614;BME280;51025;37.772;-122.432;2023-05-20T05:20:11;101295.26;;;20.73;31.11
64614;BME280;51025;37.772;-122.432;2023-05-20T05:22:39;101298.47;;;20.44;31.28
64614;BME280;51025;37.772;-122.432;2023-05-20T05:25:08;101300.99;;;20.54;31.19
64614;BME280;51025;37.772;-122.432;2023-05-20T05:27:37;101304.70;;;20.68;31.06
64614;BME280;51025;37.772;-122.432;2023-05-20T05:30:07;101305.69;;;20.82;30.81
64614;BME280;51025;37.772;-122.432;2023-05-20T05:32:36;101302.21;;;20.70;30.75
64614;BME280;51025;37.772;-122.432;2023-05-20T05:35:04;101299.18;;;20.84;31.05
64614;BME280;51025;37.772;-122.432;2023-05-20T05:37:33;101289.48;;;20.93;30.76
64614;BME280;51025;37.772;-122.432;2023-05-20T05:40:02;101289.32;;;20.52;30.82
64614;BME280;51025;37.772;-122.432;2023-05-20T05:42:31;101287.81;;;20.85;30.55
64614;BME280;51025;37.772;-122.432;2023-05-20T05:44:59;101288.29;;;20.56;30.80
64614;BME280;51025;37.772;-122.432;2023-05-20T05:47:27;101290.35;;;20.69;30.71
64614;BME280;51025;37.772;-122.432;2023-05-20T05:49:55;101284.20;;;20.37;30.69
64614;BME280;51025;37.772;-122.432;2023-05-20T05:52:23;101288.92;;;20.47;30.83
64614;BME280;51025;37.772;-122.432;2023-05-20T05:54:52;101289.82;;;20.70;30.67
64614;BME280;51025;37.772;-122.432;2023-05-20T05:57:20;101293.22;;;21.29;30.48
64614;BME280;51025;37.772;-122.432;2023-05-20T05:59:49;101293.89;;;20.48;30.82
64614;BME280;51025;37.772;-122.432;2023-05-20T06:02:17;101299.63;;;20.66;30.52
64614;BME280;51025;37.772;-122.432;2023-05-20T06:04:45;101295.13;;;21.15;30.50
64614;BME280;51025;37.772;-122.432;2023-05-20T06:07:14;101292.70;;;21.52;30.35
64614;BME280;51025;37.772;-122.432;2023-05-20T06:09:42;101287.52;;;20.48;30.54
64614;BME280;51025;37.772;-122.432;2023-05-20T06:12:11;101289.59;;;20.42;30.59
64614;BME280;51025;37.772;-122.432;2023-05-20T06:14:39;101287.40;;;20.83;30.58
64614;BME280;51025;37.772;-122.432;2023-05-20T06:17:07;101288.16;;;20.39;30.58
64614;BME280;51025;37.772;-122.432;2023-05-20T06:19:35;101284.31;;;20.68;30.57
64614;BME280;51025;37.772;-122.432;2023-05-20T06:22:04;101280.05;;;20.04;30.74
64614;BME280;51025;37.772;-122.432;2023-05-20T06:24:34;101282.83;;;20.41;30.41
64614;BME280;51025;37.772;-122.432;2023-05-20T06:27:02;101281.52;;;20.68;30.45
64614;BME280;51025;37.772;-122.432;2023-05-20T06:29:31;101280.95;;;21.05;30.42
64614;BME280;51025;37.772;-122.432;2023-05-20T06:31:59;101285.40;;;20.37;30.63
64614;BME280;51025;37.772;-122.432;2023-05-20T06:34:27;101289.62;;;20.25;30.36
64614;BME280;51025;37.772;-122.432;2023-05-20T06:36:56;101285.80;;;20.56;30.48
64614;BME280;51025;37.772;-122.432;2023-05-20T06:39:24;101277.61;;;20.14;30.31
64614;BME280;51025;37.772;-122.432;2023-05-20T06:41:52;101280.79;;;20.70;30.56
64614;BME280;51025;37.772;-122.432;2023-05-20T06:44:21;101283.78;;;20.15;30.30
64614;BME280;51025;37.772;-122.432;2023-05-20T06:46:50;101272.86;;;19.85;30.54
64614;BME280;51025;37.772;-122.432;2023-05-20T06:49:18;101271.36;;;19.85;30.52
64614;BME280;51025;37.772;-122.432;2023-05-20T06:51:47;101272.76;;;20.20;30.56
64614;BME280;51025;37.772;-122.432;2023-05-20T06:54:16;101270.88;;;20.18;30.23
64614;BME280;51025;37.772;-122.432;2023-05-20T06:56:44;101265.42;;;20.59;30.08
64614;BME280;51025;37.772;-122.432;2023-05-20T06:59:13;101265.37;;;19.69;30.52
64614;BME280;51025;37.772;-122.432;2023-05-20T07:01:42;101266.74;;;20.41;30.27
64614;BME280;51025;37.772;-122.432;2023-05-20T07:04:11;101271.60;;;20.23;30.36
64614;BME280;51025;37.772;-122.432;2023-05-20T07:06:39;101274.44;;;20.09;30.14
64614;BME280;51025;37.772;-122.432;2023-05-20T07:09:07;101266.57;;;20.11;30.12
64614;BME280;51025;37.772;-122.432;2023-05-20T07:11:35;101269.89;;;19.70;30.39
64614;BME280;51025;37.772;-122.432;2023-05-20T07:14:03;101270.11;;;20.40;30.18
64614;BME280;51025;37.772;-122.432;2023-05-20T07:16:31;101267.34;;;20.00;30.48
64614;BME280;51025;37.772;-122.432;2023-05-20T07:19:00;101263.62;;;20.04;30.10
64614;BME280;51025;37.772;-122.432;2023-05-20T07:21:28;101263.64;;;20.33;30.44
64614;BME280;51025;37.772;-122.432;2023-05-20T07:23:56;101257.54;;;19.89;30.49
64614;BME280;51025;37.772;-122.432;2023-05-20T07:26:24;101254.45;;;20.51;29.93
64614;BME280;51025;37.772;-122.432;2023-05-20T07:28:52;101260.21;;;20.09;30.28
64614;BME280;51025;37.772;-122.432;2023-05-20T07:31:20;101268.27;;;19.98;30.38
64614;BME280;51025;37.772;-122.432;2023-05-20T07:33:48;101262.51;;;20.01;29.92
64614;BME280;51025;37.772;-122.432;2023-05-20T07:36:16;101262.96;;;20.24;30.12
64614;BME280;51025;37.772;-122.432;2023-05-20T07:38:44;101266.83;;;20.19;30.11
64614;BME280;51025;37.772;-122.432;2023-05-20T07:41:12;101264.57;;;19.90;30.33
64614;BME280;51025;37.772;-122.432;2023-05-20T07:43:40;101265.95;;;19.87;30.33
64614;BME280;51025;37.772;-122.432;2023-05-20T07:46:08;101276.65;;;19.92;30.26
64614;BME280;51025;37.772;-122.432;2023-05-20T07:48:36;101276.14;;;19.74;30.44
64614;BME280;51025;37.772;-122.432;2023-05-20T07:51:04;101272.79;;;19.55;30.18
64614;BME280;51025;37.772;-122.432;2023-05-20T07:53:33;101268.53;;;20.41;30.15
64614;BME280;51025;37.772;-122.432;2023-05-20T07:56:02;101272.00;;;19.42;30.25
64614;BME280;51025;37.772;-122.432;2023-05-20T07:58:31;101279.65;;;19.69;30.38
64614;BME280;51025;37.772;-122.432;2023-05-20T08:00:59;101277.54;;;19.77;30.29
64614;BME280;51025;37.772;-122.432;2023-05-20T08:03:28;101281.27;;;19.90;30.16
64614;BME280;51025;37.772;-122.432;2023-05-20T08:05:56;101281.50;;;19.61;30.41
64614;BME280;51025;37.772;-122.432;2023-05-20T08:08:24;101275.60;;;20.08;30.26
64614;BME280;51025;37.772;-122.432;2023-05-20T08:10:52;101272.49;;;19.87;30.43
64614;BME280;51025;37.772;-122.432;2023-05-20T08:13:21;101267.79;;;19.87;30.08
64614;BME280;51025;37.772;-122.432;2023-05-20T08:15:49;101269.99;;;19.09;30.40
64614;BME280;51025;37.772;-122.432;2023-05-20T08:18:17;101268.95;;;19.82;30.42
64614;BME280;51025;37.772;-122.432;2023-05-20T08:20:45;101275.46;;;20.06;30.17
64614;BME280;51025;37.772;-122.432;2023-05-20T08:23:13;101276.43;;;19.18;30.25
64614;BME280;51025;37.772;-122.432;2023-05-20T08:25:41;101271.85;;;19.64;30.18
64614;BME280;51025;37.772;-122.432;2023-05-20T08:28:09;101275.94;;;19.94;30.21
64614;BME280;51025;37.772;-122.432;2023-05-20T08:30:37;101280.93;;;19.44;30.35
64614;BME280;51025;37.772;-122.432;2023-05-20T08:33:06;101285.03;;;19.88;30.23
64614;BME280;51025;37.772;-122.432;2023-05-20T08:35:34;101285.41;;;19.93;30.17
64614;BME280;51025;37.772;-122.432;2023-05-20T08:38:02;101293.68;;;19.69;30.12
64614;BME280;51025;37.772;-122.432;2023-05-20T08:40:30;101293.74;;;19.80;30.25
64614;BME280;51025;37.772;-122.432;2023-05-20T08:42:59;101281.38;;;19.33;30.38
64614;BME280;51025;37.772;-122.432;2023-05-20T08:45:32;101285.76;;;19.49;30.16
64614;BME280;51025;37.772;-122.432;2023-05-20T08:48:01;101268.34;;;19.77;30.23
64614;BME280;51025;37.772;-122.432;2023-05-20T08:50:30;101267.48;;;19.78;30.26
64614;BME280;51025;37.772;-122.432;2023-05-20T08:52:59;101269.53;;;19.41;30.23
64614;BME280;51025;37.772;-122.432;2023-05-20T08:55:34;101262.00;;;19.37;30.22
64614;BME280;51025;37.772;-122.432;2023-05-20T08:58:04;101266.83;;;18.79;30.39
64614;BME280;51025;37.772;-122.432;2023-05-20T09:00:33;101262.87;;;19.44;30.20
64614;BME280;51025;37.772;-122.432;2023-05-20T09:03:01;101267.11;;;18.80;30.38
64614;BME280;51025;37.772;-122.432;2023-05-20T09:05:30;101259.41;;;19.76;30.16
64614;BME280;51025;37.772;-122.432;2023-05-20T09:08:05;101263.25;;;19.39;30.19
64614;BME280;51025;37.772;-122.432;2023-05-20T09:10:40;101269.41;;;19.75;30.15
64614;BME280;51025;37.772;-122.432;2023-05-20T09:13:10;101275.56;;;19.59;30.29
64614;BME280;51025;37.772;-122.432;2023-05-20T09:15:39;101272.42;;;19.69;30.20
64614;BME280;51025;37.772;-122.432;2023-05-20T09:18:07;101270.39;;;19.59;30.26
64614;BME280;51025;37.772;-122.432;2023-05-20T09:20:36;101271.06;;;19.43;30.05
64614;BME280;51025;37.772;-122.432;2023-05-20T09:23:07;101270.15;;;19.68;30.17
64614;BME280;51025;37.772;-122.432;2023-05-20T09:25:36;101267.40;;;19.20;30.29
64614;BME280;51025;37.772;-122.432;2023-05-20T09:28:05;101263.85;;;19.64;30.17
64614;BME280;51025;37.772;-122.432;2023-05-20T09:30:34;101262.63;;;19.51;30.28
64614;BME280;51025;37.772;-122.432;2023-05-20T09:33:04;101257.63;;;19.66;30.11
64614;BME280;51025;37.772;-122.432;2023-05-20T09:35:35;101253.28;;;19.00;30.38
64614;BME280;51025;37.772;-122.432;2023-05-20T09:38:05;101255.48;;;19.29;30.46
64614;BME280;51025;37.772;-122.432;2023-05-20T09:40:33;101265.88;;;19.27;30.47
64614;BME280;51025;37.772;-122.432;2023-05-20T09:43:03;101259.80;;;19.34;30.41
64614;BME280;51025;37.772;-122.432;2023-05-20T09:45:33;101266.22;;;19.60;30.16
64614;BME280;51025;37.772;-122.432;2023-05-20T09:48:01;101268.35;;;18.95;30.43
64614;BME280;51025;37.772;-122.432;2023-05-20T09:50:31;101267.81;;;19.16;30.59
64614;BME280;51025;37.772;-122.432;2023-05-20T09:53:02;101265.34;;;19.78;30.01
64614;BME280;51025;37.772;-122.432;2023-05-20T09:55:31;101272.92;;;19.38;30.35
64614;BME280;51025;37.772;-122.432;2023-05-20T09:58:02;101280.72;;;19.09;30.62
64614;BME280;51025;37.772;-122.432;2023-05-20T10:00:30;101275.70;;;19.31;30.44
64614;BME280;51025;37.772;-122.432;2023-05-20T10:02:59;101269.85;;;19.30;30.40
64614;BME280;51025;37.772;-122.432;2023-05-20T10:05:30;101269.45;;;18.94;30.72
64614;BME280;51025;37.772;-122.432;2023-05-20T10:08:20;101272.93;;;19.12;30.52
64614;BME280;51025;37.772;-122.432;2023-05-20T10:11:02;101273.00;;;19.05;30.56
64614;BME280;51025;37.772;-122.432;2023-05-20T10:13:48;101266.24;;;18.99;30.27
64614;BME280;51025;37.772;-122.432;2023-05-20T10:16:28;101265.20;;;18.81;30.46
64614;BME280;51025;37.772;-122.432;2023-05-20T10:19:08;101261.07;;;19.22;30.42
64614;BME280;51025;37.772;-122.432;2023-05-20T10:21:39;101263.32;;;19.03;30.56
64614;BME280;51025;37.772;-122.432;2023-05-20T10:24:08;101263.25;;;19.10;30.45
64614;BME280;51025;37.772;-122.432;2023-05-20T10:26:37;101260.92;;;19.10;30.46
64614;BME280;51025;37.772;-122.432;2023-05-20T10:29:15;101264.35;;;18.69;30.46
64614;BME280;51025;37.772;-122.432;2023-05-20T10:31:47;101266.55;;;19.46;30.48
64614;BME280;51025;37.772;-122.432;2023-05-20T10:34:16;101268.07;;;19.19;30.34
64614;BME280;51025;37.772;-122.432;2023-05-20T10:36:55;101269.99;;;18.96;30.55
64614;BME280;51025;37.772;-122.432;2023-05-20T10:39:26;101263.66;;;18.96;30.56
64614;BME280;51025;37.772;-122.432;2023-05-20T10:42:06;101255.44;;;19.11;30.40
64614;BME280;51025;37.772;-122.432;2023-05-20T10:44:42;101268.64;;;18.89;30.58
64614;BME280;51025;37.772;-122.432;2023-05-20T10:47:11;101259.32;;;19.08;30.38
64614;BME280;51025;37.772;-122.432;2023-05-20T10:49:42;101269.23;;;18.96;30.48
64614;BME280;51025;37.772;-122.432;2023-05-20T10:52:11;101274.06;;;18.90;30.55
64614;BME280;51025;37.772;-122.432;2023-05-20T10:54:44;101274.60;;;18.99;30.42
64614;BME280;51025;37.772;-122.432;2023-05-20T10:57:13;101281.34;;;18.93;30.47
64614;BME280;51025;37.772;-122.432;2023-05-20T10:59:42;101287.76;;;19.13;30.29
64614;BME280;51025;37.772;-122.432;2023-05-20T11:02:10;101289.03;;;19.20;30.64
64614;BME280;51025;37.772;-122.432;2023-05-20T11:04:40;101292.75;;;18.81;30.56
64614;BME280;51025;37.772;-122.432;2023-05-20T11:07:10;101295.39;;;18.92;30.45
64614;BME280;51025;37.772;-122.432;2023-05-20T11:09:38;101291.30;;;18.84;30.53
64614;BME280;51025;37.772;-122.432;2023-05-20T11:12:07;101285.00;;;18.84;30.54
64614;BME280;51025;37.772;-122.432;2023-05-20T11:14:36;101282.86;;;19.07;30.33
64614;BME280;51025;37.772;-122.432;2023-05-20T11:17:06;101281.49;;;18.82;30.54
64614;BME280;51025;37.772;-122.432;2023-05-20T11:19:36;101287.38;;;18.72;30.62
64614;BME280;51025;37.772;-122.432;2023-05-20T11:22:07;101288.46;;;18.73;30.61
64614;BME280;51025;37.772;-122.432;2023-05-20T11:24:37;101282.32;;;18.91;30.50
64614;BME280;51025;37.772;-122.432;2023-05-20T11:27:06;101285.61;;;18.89;30.44
64614;BME280;51025;37.772;-122.432;2023-05-20T11:29:34;101288.21;;;18.87;30.45
64614;BME280;51025;37.772;-122.432;2023-05-20T11:32:03;101287.08;;;18.85;30.46
64614;BME280;51025;37.772;-122.432;2023-05-20T11:34:34;101290.46;;;18.88;30.44
64614;BME280;51025;37.772;-122.432;2023-05-20T11:37:06;101289.50;;;18.75;30.51
64614;BME280;51025;37.772;-122.432;2023-05-20T11:39:35;101295.16;;;18.75;30.52
64614;BME280;51025;37.772;-122.432;2023-05-20T11:42:04;101305.36;;;18.77;30.54
64614;BME280;51025;37.772;-122.432;2023-05-20T11:44:33;101302.87;;;18.73;30.52
64614;BME280;51025;37.772;-122.432;2023-05-20T11:47:03;101302.58;;;18.67;30.56
64614;BME280;51025;37.772;-122.432;2023-05-20T11:49:39;101305.63;;;18.78;30.45
64614;BME280;51025;37.772;-122.432;2023-05-20T11:52:08;101303.29;;;18.73;30.51
64614;BME280;51025;37.772;-122.432;2023-05-20T11:54:37;101302.70;;;19.13;30.49
64614;BME280;51025;37.772;-122.432;2023-05-20T11:57:05;101305.23;;;18.63;30.57
64614;BME280;51025;37.772;-122.432;2023-05-20T11:59:34;101306.42;;;19.00;30.59
64614;BME280;51025;37.772;-122.432;2023-05-20T12:02:02;101311.47;;;18.47;30.67
64614;BME280;51025;37.772;-122.432;2023-05-20T12:04:30;101314.42;;;18.78;30.37
64614;BME280;51025;37.772;-122.432;2023-05-20T12:06:58;101310.91;;;18.58;30.58
64614;BME280;51025;37.772;-122.432;2023-05-20T12:09:26;101310.74;;;19.00;30.55
64614;BME280;51025;37.772;-122.432;2023-05-20T12:11:54;101314.10;;;18.56;30.59
64614;BME280;51025;37.772;-122.432;2023-05-20T12:14:24;101316.60;;;18.60;30.53
64614;BME280;51025;37.772;-122.432;2023-05-20T12:16:52;101320.18;;;18.62;30.50
64614;BME280;51025;37.772;-122.432;2023-05-20T12:19:20;101315.23;;;18.68;30.38
64614;BME280;51025;37.772;-122.432;2023-05-20T12:21:48;101321.68;;;19.14;30.41
64614;BME280;51025;37.772;-122.432;2023-05-20T12:24:16;101325.10;;;18.55;30.54
64614;BME280;51025;37.772;-122.432;2023-05-20T12:26:44;101321.35;;;18.52;30.55
64614;BME280;51025;37.772;-122.432;2023-05-20T12:29:13;101326.77;;;18.97;30.52
64614;BME280;51025;37.772;-122.432;2023-05-20T12:31:41;101332.44;;;18.91;30.56